sensor_id;sensor_type;location;lat;lon;timestamp;P1;durP1;ratioP1;P2;durP2;ratioP2
16600;SDS011;34891;48.164;11.572;2024-02-26T00:04:31;15.25;;;4.18;;
16600;SDS011;34891;48.164;11.572;2024-02-26T00:09:50;4.20;;;1.85;;
16600;SDS011;34891;48.164;11.572;2024-02-26T00:15:01;3.03;;;1.13;;
16600;SDS011;34891;48.164;11.572;2024-02-26T00:20:09;1.92;;;1.33;;
16600;SDS011;34891;48.164;11.572;2024-02-26T00:25:13;2.25;;;1.98;;
16600;SDS011;34891;48.164;11.572;2024-02-26T00:30:21;3.80;;;1.98;;
16600;SDS011;34891;48.164;11.572;2024-02-26T00:35:48;2.92;;;1.20;;
16600;SDS011;34891;48.164;11.572;2024-02-26T00:40:59;1.83;;;1.25;;
16600;SDS011;34891;48.164;11.572;2024-02-26T00:46:06;4.68;;;2.05;;
16600;SDS011;34891;48.164;11.572;2024-02-26T00:51:20;3.67;;;1.75;;
16600;SDS011;34891;48.164;11.572;2024-02-26T00:56:29;2.78;;;1.45;;
16600;SDS011;34891;48.164;11.572;2024-02-26T01:01:39;3.50;;;2.00;;
16600;SDS011;34891;48.164;11.572;2024-02-26T01:06:47;3.47;;;1.27;;
16600;SDS011;34891;48.164;11.572;2024-02-26T01:11:50;2.42;;;1.00;;
16600;SDS011;34891;48.164;11.572;2024-02-26T01:17:06;1.63;;;1.20;;
16600;SDS011;34891;48.164;11.572;2024-02-26T01:22:19;2.72;;;1.50;;
16600;SDS011;34891;48.164;11.572;2024-02-26T01:27:25;3.28;;;1.48;;
16600;SDS011;34891;48.164;11.572;2024-02-26T01:32:31;1.88;;;1.13;;
16600;SDS011;34891;48.164;11.572;2024-02-26T01:37:48;4.03;;;1.95;;
16600;SDS011;34891;48.164;11.572;2024-02-26T01:42:53;2.63;;;1.55;;
16600;SDS011;34891;48.164;11.572;2024-02-26T01:48:00;3.88;;;1.83;;
16600;SDS011;34891;48.164;11.572;2024-02-26T01:53:07;4.65;;;1.70;;
16600;SDS011;34891;48.164;11.572;2024-02-26T01:58:13;2.22;;;1.23;;
16600;SDS011;34891;48.164;11.572;2024-02-26T02:03:21;2.80;;;1.17;;
16600;SDS011;34891;48.164;11.572;2024-02-26T02:08:48;1.88;;;1.40;;
16600;SDS011;34891;48.164;11.572;2024-02-26T02:14:02;1.33;;;0.80;;
16600;SDS011;34891;48.164;11.572;2024-02-26T02:19:12;1.20;;;1.02;;
16600;SDS011;34891;48.164;11.572;2024-02-26T02:24:20;4.20;;;1.70;;
16600;SDS011;34891;48.164;11.572;2024-02-26T02:29:25;1.58;;;1.17;;
16600;SDS011;34891;48.164;11.572;2024-02-26T02:34:29;3.35;;;1.80;;
16600;SDS011;34891;48.164;11.572;2024-02-26T02:44:54;1.88;;;1.10;;
16600;SDS011;34891;48.164;11.572;2024-02-26T02:50:01;2.15;;;1.35;;
16600;SDS011;34891;48.164;11.572;2024-02-26T02:55:09;5.18;;;1.65;;
16600;SDS011;34891;48.164;11.572;2024-02-26T03:00:16;2.83;;;1.40;;
16600;SDS011;34891;48.164;11.572;2024-02-26T03:05:21;2.00;;;1.47;;
16600;SDS011;34891;48.164;11.572;2024-02-26T03:10:32;2.58;;;1.00;;
16600;SDS011;34891;48.164;11.572;2024-02-26T03:15:41;3.55;;;1.35;;
16600;SDS011;34891;48.164;11.572;2024-02-26T03:20:47;3.65;;;1.67;;
16600;SDS011;34891;48.164;11.572;2024-02-26T03:25:54;2.00;;;1.48;;
16600;SDS011;34891;48.164;11.572;2024-02-26T03:31:08;2.85;;;1.52;;
16600;SDS011;34891;48.164;11.572;2024-02-26T03:36:22;0.38;;;0.38;;
16600;SDS011;34891;48.164;11.572;2024-02-26T03:41:29;1.05;;;0.68;;
16600;SDS011;34891;48.164;11.572;2024-02-26T03:46:39;3.63;;;1.40;;
16600;SDS011;34891;48.164;11.572;2024-02-26T03:51:50;1.90;;;0.85;;
16600;SDS011;34891;48.164;11.572;2024-02-26T03:57:03;2.85;;;1.60;;
16600;SDS011;34891;48.164;11.572;2024-02-26T04:02:16;2.85;;;1.80;;
16600;SDS011;34891;48.164;11.572;2024-02-26T04:07:28;1.85;;;1.02;;
16600;SDS011;34891;48.164;11.572;2024-02-26T04:12:37;2.88;;;1.60;;
16600;SDS011;34891;48.164;11.572;2024-02-26T04:17:44;2.65;;;1.20;;
16600;SDS011;34891;48.164;11.572;2024-02-26T04:22:48;0.68;;;0.57;;
16600;SDS011;34891;48.164;11.572;2024-02-26T04:27:53;2.85;;;1.20;;
16600;SDS011;34891;48.164;11.572;2024-02-26T04:33:06;0.73;;;0.73;;
16600;SDS011;34891;48.164;11.572;2024-02-26T04:38:12;2.03;;;1.15;;
16600;SDS011;34891;48.164;11.572;2024-02-26T04:43:18;2.70;;;1.50;;
16600;SDS011;34891;48.164;11.572;2024-02-26T04:48:24;1.42;;;0.82;;
16600;SDS011;34891;48.164;11.572;2024-02-26T04:53:29;0.60;;;0.57;;
16600;SDS011;34891;48.164;11.572;2024-02-26T04:58:35;1.55;;;0.80;;
16600;SDS011;34891;48.164;11.572;2024-02-26T05:03:49;2.57;;;0.90;;
16600;SDS011;34891;48.164;11.572;2024-02-26T05:08:55;2.58;;;1.15;;
16600;SDS011;34891;48.164;11.572;2024-02-26T05:14:01;1.58;;;0.98;;
16600;SDS011;34891;48.164;11.572;2024-02-26T05:19:11;3.00;;;1.13;;
16600;SDS011;34891;48.164;11.572;2024-02-26T05:24:16;1.77;;;0.95;;
16600;SDS011;34891;48.164;11.572;2024-02-26T05:29:21;1.42;;;1.25;;
16600;SDS011;34891;48.164;11.572;2024-02-26T05:39:54;1.55;;;1.00;;
16600;SDS011;34891;48.164;11.572;2024-02-26T05:44:59;2.75;;;1.23;;
16600;SDS011;34891;48.164;11.572;2024-02-26T05:50:08;3.20;;;1.20;;
16600;SDS011;34891;48.164;11.572;2024-02-26T05:55:17;4.47;;;1.33;;
16600;SDS011;34891;48.164;11.572;2024-02-26T06:00:21;5.25;;;1.55;;
16600;SDS011;34891;48.164;11.572;2024-02-26T06:05:25;4.60;;;1.60;;
16600;SDS011;34891;48.164;11.572;2024-02-26T06:10:35;5.20;;;1.60;;
16600;SDS011;34891;48.164;11.572;2024-02-26T06:15:41;3.45;;;1.63;;
16600;SDS011;34891;48.164;11.572;2024-02-26T06:20:48;3.20;;;1.25;;
16600;SDS011;34891;48.164;11.572;2024-02-26T06:31:08;2.92;;;1.55;;
16600;SDS011;34891;48.164;11.572;2024-02-26T06:36:11;3.83;;;1.70;;
16600;SDS011;34891;48.164;11.572;2024-02-26T06:41:17;4.22;;;1.90;;
16600;SDS011;34891;48.164;11.572;2024-02-26T06:46:38;3.28;;;1.70;;
16600;SDS011;34891;48.164;11.572;2024-02-26T06:51:43;4.00;;;1.83;;
16600;SDS011;34891;48.164;11.572;2024-02-26T06:56:52;8.30;;;3.00;;
16600;SDS011;34891;48.164;11.572;2024-02-26T07:07:01;2.93;;;1.60;;
16600;SDS011;34891;48.164;11.572;2024-02-26T07:12:11;3.80;;;1.60;;
16600;SDS011;34891;48.164;11.572;2024-02-26T07:17:17;4.55;;;1.75;;
16600;SDS011;34891;48.164;11.572;2024-02-26T07:22:24;4.28;;;1.60;;
16600;SDS011;34891;48.164;11.572;2024-02-26T07:27:33;3.53;;;1.70;;
16600;SDS011;34891;48.164;11.572;2024-02-26T07:32:38;3.22;;;1.83;;
16600;SDS011;34891;48.164;11.572;2024-02-26T07:37:52;3.08;;;1.80;;
16600;SDS011;34891;48.164;11.572;2024-02-26T07:42:58;3.38;;;1.90;;
16600;SDS011;34891;48.164;11.572;2024-02-26T07:48:06;3.67;;;1.70;;
16600;SDS011;34891;48.164;11.572;2024-02-26T07:53:14;3.83;;;1.75;;
16600;SDS011;34891;48.164;11.572;2024-02-26T07:58:22;3.92;;;1.98;;
16600;SDS011;34891;48.164;11.572;2024-02-26T08:03:30;3.60;;;1.70;;
16600;SDS011;34891;48.164;11.572;2024-02-26T08:08:38;3.10;;;1.58;;
16600;SDS011;34891;48.164;11.572;2024-02-26T08:13:54;6.70;;;2.17;;
16600;SDS011;34891;48.164;11.572;2024-02-26T08:19:09;3.00;;;1.60;;
16600;SDS011;34891;48.164;11.572;2024-02-26T08:24:22;3.78;;;2.13;;
16600;SDS011;34891;48.164;11.572;2024-02-26T08:29:30;6.95;;;1.85;;
16600;SDS011;34891;48.164;11.572;2024-02-26T08:34:35;5.97;;;1.80;;
16600;SDS011;34891;48.164;11.572;2024-02-26T08:39:43;4.20;;;1.77;;
16600;SDS011;34891;48.164;11.572;2024-02-26T08:44:48;3.17;;;1.85;;
16600;SDS011;34891;48.164;11.572;2024-02-26T08:50:02;5.97;;;1.85;;
16600;SDS011;34891;48.164;11.572;2024-02-26T08:55:21;4.90;;;1.90;;
16600;SDS011;34891;48.164;11.572;2024-02-26T09:00:40;4.00;;;1.90;;
16600;SDS011;34891;48.164;11.572;2024-02-26T09:05:50;3.03;;;1.80;;
16600;SDS011;34891;48.164;11.572;2024-02-26T09:10:57;5.63;;;1.90;;
16600;SDS011;34891;48.164;11.572;2024-02-26T09:16:04;3.92;;;1.88;;
16600;SDS011;34891;48.164;11.572;2024-02-26T09:21:10;2.97;;;1.75;;
16600;SDS011;34891;48.164;11.572;2024-02-26T09:26:18;4.85;;;1.83;;
16600;SDS011;34891;48.164;11.572;2024-02-26T09:31:24;3.17;;;1.85;;
16600;SDS011;34891;48.164;11.572;2024-02-26T09:36:29;3.30;;;1.52;;
16600;SDS011;34891;48.164;11.572;2024-02-26T09:41:41;4.78;;;2.20;;
16600;SDS011;34891;48.164;11.572;2024-02-26T09:46:59;3.53;;;1.92;;
16600;SDS011;34891;48.164;11.572;2024-02-26T09:52:04;5.40;;;2.47;;
16600;SDS011;34891;48.164;11.572;2024-02-26T09:57:20;4.78;;;2.20;;
16600;SDS011;34891;48.164;11.572;2024-02-26T10:02:28;4.03;;;2.25;;
16600;SDS011;34891;48.164;11.572;2024-02-26T10:07:33;7.45;;;2.40;;
16600;SDS011;34891;48.164;11.572;2024-02-26T10:12:47;2.92;;;1.73;;
16600;SDS011;34891;48.164;11.572;2024-02-26T10:17:53;2.90;;;1.80;;
16600;SDS011;34891;48.164;11.572;2024-02-26T10:23:04;3.33;;;1.60;;
16600;SDS011;34891;48.164;11.572;2024-02-26T10:28:21;3.10;;;1.90;;
16600;SDS011;34891;48.164;11.572;2024-02-26T10:33:28;3.28;;;1.50;;
16600;SDS011;34891;48.164;11.572;2024-02-26T10:38:37;5.07;;;1.50;;
16600;SDS011;34891;48.164;11.572;2024-02-26T10:43:48;3.85;;;1.52;;
16600;SDS011;34891;48.164;11.572;2024-02-26T10:48:59;3.35;;;1.30;;
16600;SDS011;34891;48.164;11.572;2024-02-26T10:54:08;3.00;;;1.52;;
16600;SDS011;34891;48.164;11.572;2024-02-26T10:59:14;2.75;;;1.08;;
16600;SDS011;34891;48.164;11.572;2024-02-26T11:04:23;1.33;;;1.10;;
16600;SDS011;34891;48.164;11.572;2024-02-26T11:09:32;1.73;;;1.20;;
16600;SDS011;34891;48.164;11.572;2024-02-26T11:20:14;1.17;;;1.10;;
16600;SDS011;34891;48.164;11.572;2024-02-26T11:25:18;2.58;;;1.60;;
16600;SDS011;34891;48.164;11.572;2024-02-26T11:30:31;1.95;;;1.42;;
16600;SDS011;34891;48.164;11.572;2024-02-26T11:35:54;1.55;;;1.30;;
16600;SDS011;34891;48.164;11.572;2024-02-26T11:41:12;2.60;;;1.33;;
16600;SDS011;34891;48.164;11.572;2024-02-26T11:46:25;1.50;;;1.33;;
16600;SDS011;34891;48.164;11.572;2024-02-26T11:51:34;3.05;;;1.30;;
16600;SDS011;34891;48.164;11.572;2024-02-26T11:56:43;2.05;;;1.45;;
16600;SDS011;34891;48.164;11.572;2024-02-26T12:01:53;2.80;;;1.20;;
16600;SDS011;34891;48.164;11.572;2024-02-26T12:07:05;2.80;;;1.40;;
16600;SDS011;34891;48.164;11.572;2024-02-26T12:12:10;2.75;;;1.60;;
16600;SDS011;34891;48.164;11.572;2024-02-26T12:17:18;1.80;;;1.30;;
16600;SDS011;34891;48.164;11.572;2024-02-26T12:22:38;1.50;;;1.38;;
16600;SDS011;34891;48.164;11.572;2024-02-26T12:27:47;2.75;;;1.55;;
16600;SDS011;34891;48.164;11.572;2024-02-26T12:32:55;1.92;;;1.00;;
16600;SDS011;34891;48.164;11.572;2024-02-26T12:38:08;3.00;;;1.90;;
16600;SDS011;34891;48.164;11.572;2024-02-26T12:43:20;3.22;;;1.90;;
16600;SDS011;34891;48.164;11.572;2024-02-26T12:48:25;3.45;;;1.67;;
16600;SDS011;34891;48.164;11.572;2024-02-26T12:53:39;2.83;;;2.08;;
16600;SDS011;34891;48.164;11.572;2024-02-26T12:58:46;3.20;;;2.20;;
16600;SDS011;34891;48.164;11.572;2024-02-26T13:03:55;2.15;;;1.95;;
16600;SDS011;34891;48.164;11.572;2024-02-26T13:09:10;5.13;;;2.10;;
16600;SDS011;34891;48.164;11.572;2024-02-26T13:14:19;3.60;;;1.60;;
16600;SDS011;34891;48.164;11.572;2024-02-26T13:19:26;3.03;;;2.00;;
16600;SDS011;34891;48.164;11.572;2024-02-26T13:24:36;4.25;;;2.33;;
16600;SDS011;34891;48.164;11.572;2024-02-26T13:35:20;3.67;;;2.45;;
16600;SDS011;34891;48.164;11.572;2024-02-26T13:40:25;4.35;;;1.70;;
16600;SDS011;34891;48.164;11.572;2024-02-26T13:45:36;1.38;;;0.98;;
16600;SDS011;34891;48.164;11.572;2024-02-26T13:50:47;1.60;;;1.20;;
16600;SDS011;34891;48.164;11.572;2024-02-26T14:01:18;1.38;;;0.80;;
16600;SDS011;34891;48.164;11.572;2024-02-26T14:06:29;1.25;;;0.98;;
16600;SDS011;34891;48.164;11.572;2024-02-26T14:11:34;1.70;;;0.93;;
16600;SDS011;34891;48.164;11.572;2024-02-26T14:22:08;2.45;;;1.25;;
16600;SDS011;34891;48.164;11.572;2024-02-26T14:27:13;2.38;;;1.13;;
16600;SDS011;34891;48.164;11.572;2024-02-26T14:32:26;2.25;;;1.33;;
16600;SDS011;34891;48.164;11.572;2024-02-26T14:37:41;3.63;;;1.63;;
16600;SDS011;34891;48.164;11.572;2024-02-26T14:42:52;2.53;;;1.40;;
16600;SDS011;34891;48.164;11.572;2024-02-26T14:48:02;3.58;;;1.50;;
16600;SDS011;34891;48.164;11.572;2024-02-26T14:53:11;3.72;;;1.70;;
16600;SDS011;34891;48.164;11.572;2024-02-26T14:58:18;2.75;;;1.65;;
16600;SDS011;34891;48.164;11.572;2024-02-26T15:03:35;3.15;;;1.55;;
16600;SDS011;34891;48.164;11.572;2024-02-26T15:08:42;2.97;;;1.50;;
16600;SDS011;34891;48.164;11.572;2024-02-26T15:13:49;2.75;;;1.33;;
16600;SDS011;34891;48.164;11.572;2024-02-26T15:18:53;2.65;;;1.42;;
16600;SDS011;34891;48.164;11.572;2024-02-26T15:24:16;1.73;;;1.10;;
16600;SDS011;34891;48.164;11.572;2024-02-26T15:29:26;3.27;;;1.50;;
16600;SDS011;34891;48.164;11.572;2024-02-26T15:34:31;3.53;;;1.33;;
16600;SDS011;34891;48.164;11.572;2024-02-26T15:39:41;2.38;;;1.35;;
16600;SDS011;34891;48.164;11.572;2024-02-26T15:44:52;1.92;;;1.20;;
16600;SDS011;34891;48.164;11.572;2024-02-26T15:49:59;3.33;;;1.55;;
16600;SDS011;34891;48.164;11.572;2024-02-26T15:55:14;4.55;;;2.10;;
16600;SDS011;34891;48.164;11.572;2024-02-26T16:00:21;2.80;;;1.50;;
16600;SDS011;34891;48.164;11.572;2024-02-26T16:05:34;6.82;;;1.40;;
16600;SDS011;34891;48.164;11.572;2024-02-26T16:10:48;2.80;;;1.10;;
16600;SDS011;34891;48.164;11.572;2024-02-26T16:15:56;3.15;;;1.10;;
16600;SDS011;34891;48.164;11.572;2024-02-26T16:21:01;1.42;;;1.08;;
16600;SDS011;34891;48.164;11.572;2024-02-26T16:26:08;4.40;;;1.20;;
16600;SDS011;34891;48.164;11.572;2024-02-26T16:31:17;2.78;;;1.20;;
16600;SDS011;34891;48.164;11.572;2024-02-26T16:36:27;3.03;;;1.77;;
16600;SDS011;34891;48.164;11.572;2024-02-26T16:41:37;3.58;;;1.63;;
16600;SDS011;34891;48.164;11.572;2024-02-26T16:46:49;6.60;;;1.40;;
16600;SDS011;34891;48.164;11.572;2024-02-26T16:51:55;3.55;;;1.42;;
16600;SDS011;34891;48.164;11.572;2024-02-26T16:57:01;3.75;;;1.42;;
16600;SDS011;34891;48.164;11.572;2024-02-26T17:02:05;2.10;;;1.48;;
16600;SDS011;34891;48.164;11.572;2024-02-26T17:12:16;2.67;;;1.60;;
16600;SDS011;34891;48.164;11.572;2024-02-26T17:17:22;3.80;;;1.85;;
16600;SDS011;34891;48.164;11.572;2024-02-26T17:22:28;3.35;;;2.10;;
16600;SDS011;34891;48.164;11.572;2024-02-26T17:27:58;3.95;;;1.95;;
16600;SDS011;34891;48.164;11.572;2024-02-26T17:33:01;3.25;;;1.58;;
16600;SDS011;34891;48.164;11.572;2024-02-26T17:38:09;3.83;;;1.80;;
16600;SDS011;34891;48.164;11.572;2024-02-26T17:43:18;2.67;;;1.60;;
16600;SDS011;34891;48.164;11.572;2024-02-26T17:48:39;4.47;;;1.75;;
16600;SDS011;34891;48.164;11.572;2024-02-26T17:53:49;7.90;;;1.90;;
16600;SDS011;34891;48.164;11.572;2024-02-26T18:04:10;4.07;;;1.60;;
16600;SDS011;34891;48.164;11.572;2024-02-26T18:09:18;5.20;;;2.00;;
16600;SDS011;34891;48.164;11.572;2024-02-26T18:14:25;4.85;;;2.17;;
16600;SDS011;34891;48.164;11.572;2024-02-26T18:19:32;5.38;;;2.22;;
16600;SDS011;34891;48.164;11.572;2024-02-26T18:24:42;5.13;;;2.40;;
16600;SDS011;34891;48.164;11.572;2024-02-26T18:29:46;3.38;;;2.10;;
16600;SDS011;34891;48.164;11.572;2024-02-26T18:40:32;9.18;;;2.20;;
16600;SDS011;34891;48.164;11.572;2024-02-26T18:45:43;4.60;;;2.40;;
16600;SDS011;34891;48.164;11.572;2024-02-26T18:50:47;4.53;;;1.92;;
16600;SDS011;34891;48.164;11.572;2024-02-26T18:55:53;6.85;;;2.58;;
16600;SDS011;34891;48.164;11.572;2024-02-26T19:00:57;4.35;;;2.15;;
16600;SDS011;34891;48.164;11.572;2024-02-26T19:06:08;5.95;;;2.90;;
16600;SDS011;34891;48.164;11.572;2024-02-26T19:11:15;7.15;;;2.47;;
16600;SDS011;34891;48.164;11.572;2024-02-26T19:16:24;6.53;;;2.40;;
16600;SDS011;34891;48.164;11.572;2024-02-26T19:21:31;7.28;;;2.72;;
16600;SDS011;34891;48.164;11.572;2024-02-26T19:26:41;5.95;;;2.50;;
16600;SDS011;34891;48.164;11.572;2024-02-26T19:31:45;5.72;;;2.80;;
16600;SDS011;34891;48.164;11.572;2024-02-26T19:36:53;6.97;;;2.97;;
16600;SDS011;34891;48.164;11.572;2024-02-26T19:42:02;8.30;;;2.80;;
16600;SDS011;34891;48.164;11.572;2024-02-26T19:47:17;6.80;;;2.63;;
16600;SDS011;34891;48.164;11.572;2024-02-26T19:52:27;7.03;;;3.10;;
16600;SDS011;34891;48.164;11.572;2024-02-26T20:03:06;6.15;;;2.72;;
16600;SDS011;34891;48.164;11.572;2024-02-26T20:08:13;8.30;;;3.40;;
16600;SDS011;34891;48.164;11.572;2024-02-26T20:13:21;6.32;;;3.22;;
16600;SDS011;34891;48.164;11.572;2024-02-26T20:18:31;6.85;;;2.90;;
16600;SDS011;34891;48.164;11.572;2024-02-26T20:23:38;7.13;;;3.08;;
16600;SDS011;34891;48.164;11.572;2024-02-26T20:28:46;8.18;;;3.08;;
16600;SDS011;34891;48.164;11.572;2024-02-26T20:34:01;6.78;;;3.20;;
16600;SDS011;34891;48.164;11.572;2024-02-26T20:39:16;7.57;;;3.33;;
16600;SDS011;34891;48.164;11.572;2024-02-26T20:44:23;7.03;;;3.33;;
16600;SDS011;34891;48.164;11.572;2024-02-26T20:49:39;9.05;;;3.33;;
16600;SDS011;34891;48.164;11.572;2024-02-26T20:54:44;5.65;;;2.67;;
16600;SDS011;34891;48.164;11.572;2024-02-26T20:59:58;5.95;;;2.65;;
16600;SDS011;34891;48.164;11.572;2024-02-26T21:05:05;3.78;;;2.13;;
16600;SDS011;34891;48.164;11.572;2024-02-26T21:10:13;4.90;;;2.20;;
16600;SDS011;34891;48.164;11.572;2024-02-26T21:20:22;9.05;;;2.58;;
16600;SDS011;34891;48.164;11.572;2024-02-26T21:25:27;4.80;;;2.22;;
16600;SDS011;34891;48.164;11.572;2024-02-26T21:30:37;5.18;;;2.55;;
16600;SDS011;34891;48.164;11.572;2024-02-26T21:35:50;6.50;;;2.88;;
16600;SDS011;34891;48.164;11.572;2024-02-26T21:40:59;5.35;;;2.33;;
16600;SDS011;34891;48.164;11.572;2024-02-26T21:46:04;5.90;;;2.13;;
16600;SDS011;34891;48.164;11.572;2024-02-26T21:51:16;5.28;;;2.63;;
16600;SDS011;34891;48.164;11.572;2024-02-26T21:56:21;7.43;;;3.22;;
16600;SDS011;34891;48.164;11.572;2024-02-26T22:01:26;7.18;;;3.05;;
16600;SDS011;34891;48.164;11.572;2024-02-26T22:06:41;5.22;;;2.45;;
16600;SDS011;34891;48.164;11.572;2024-02-26T22:11:48;7.45;;;3.00;;
16600;SDS011;34891;48.164;11.572;2024-02-26T22:16:53;6.63;;;3.47;;
16600;SDS011;34891;48.164;11.572;2024-02-26T22:22:03;12.70;;;3.70;;
16600;SDS011;34891;48.164;11.572;2024-02-26T22:27:09;9.05;;;4.22;;
16600;SDS011;34891;48.164;11.572;2024-02-26T22:32:20;9.90;;;3.60;;
16600;SDS011;34891;48.164;11.572;2024-02-26T22:37:35;8.95;;;3.70;;
16600;SDS011;34891;48.164;11.572;2024-02-26T22:42:40;7.97;;;3.13;;
16600;SDS011;34891;48.164;11.572;2024-02-26T22:47:46;8.88;;;3.97;;
16600;SDS011;34891;48.164;11.572;2024-02-26T22:53:01;9.23;;;3.40;;
16600;SDS011;34891;48.164;11.572;2024-02-26T22:58:12;8.02;;;3.20;;
16600;SDS011;34891;48.164;11.572;2024-02-26T23:03:23;9.25;;;3.80;;
16600;SDS011;34891;48.164;11.572;2024-02-26T23:08:31;8.23;;;3.40;;
16600;SDS011;34891;48.164;11.572;2024-02-26T23:13:35;11.55;;;3.85;;
16600;SDS011;34891;48.164;11.572;2024-02-26T23:18:40;9.05;;;3.50;;
16600;SDS011;34891;48.164;11.572;2024-02-26T23:24:03;10.88;;;4.05;;
16600;SDS011;34891;48.164;11.572;2024-02-26T23:29:13;9.35;;;3.92;;
16600;SDS011;34891;48.164;11.572;2024-02-26T23:34:18;11.02;;;4.75;;
16600;SDS011;34891;48.164;11.572;2024-02-26T23:39:30;13.32;;;4.22;;
16600;SDS011;34891;48.164;11.572;2024-02-26T23:44:39;13.85;;;4.50;;
16600;SDS011;34891;48.164;11.572;2024-02-26T23:49:48;10.90;;;4.97;;
16600;SDS011;34891;48.164;11.572;2024-02-26T23:54:59;13.93;;;5.32;;
